Time;durP1;ratioP1;P1;durP2;ratioP2;P2;SDS_P1;SDS_P2;PMS_P1;PMS_P2;Temp;Humidity;BMP_temperature;BMP_pressure;BME280_temperature;BME280_humidity;BME280_pressure;Samples;Min_cycle;Max_cycle;Signal;HPM_P1;HPM_P2
2022/04/22 00:01:51;;;;;;;53.65;30.80;;;;;;;6.19;79.16;97515.63;1737157;81;21519;-57
2022/04/22 00:04:18;;;;;;;54.98;32.42;;;;;;;6.20;79.42;97519.13;1763269;79;22362;-57
2022/04/22 00:06:44;;;;;;;53.73;32.13;;;;;;;6.20;79.92;97514.55;1770078;81;20872;-57
2022/04/22 00:09:10;;;;;;;57.65;33.65;;;;;;;6.13;79.60;97499.19;1747019;81;20868;-57
2022/04/22 00:11:35;;;;;;;50.60;30.00;;;;;;;6.21;82.70;97505.40;1752390;81;20865;-58
2022/04/22 00:14:03;;;;;;;55.65;29.95;;;;;;;6.21;80.25;97503.25;1752570;81;21053;-57
2022/04/22 00:16:30;;;;;;;53.45;31.87;;;;;;;6.18;79.74;97504.59;1752433;81;21016;-57
2022/04/22 00:18:58;;;;;;;55.05;31.57;;;;;;;6.18;79.59;97503.25;1752524;81;21017;-57
2022/04/22 00:21:24;;;;;;;55.08;32.25;;;;;;;6.17;81.11;97506.20;1752452;81;20992;-57
2022/04/22 00:23:50;;;;;;;55.55;30.27;;;;;;;6.19;81.90;97501.36;1752453;81;20857;-57
2022/04/22 00:26:17;;;;;;;56.75;30.68;;;;;;;6.20;82.33;97503.78;1744200;81;21554;-57
2022/04/22 00:28:43;;;;;;;54.38;32.85;;;;;;;6.20;81.48;97499.75;1762108;79;21013;-57
2022/04/22 00:31:09;;;;;;;50.15;30.40;;;;;;;6.21;81.66;97496.52;1744688;81;21024;-57
2022/04/22 00:33:35;;;;;;;55.95;31.57;;;;;;;6.20;82.73;97490.88;1752782;81;20924;-57
2022/04/22 00:36:01;;;;;;;53.20;32.40;;;;;;;6.19;81.17;97493.30;1750168;81;21460;-57
2022/04/22 00:38:27;;;;;;;57.05;33.20;;;;;;;6.18;81.95;97495.17;1752443;81;21463;-57
2022/04/22 00:40:55;;;;;;;53.52;32.58;;;;;;;6.18;82.29;97493.83;1755327;81;21429;-58
2022/04/22 00:43:22;;;;;;;52.33;32.17;;;;;;;6.16;83.92;97498.67;1757145;81;21536;-58
2022/04/22 00:45:49;;;;;;;59.50;33.75;;;;;;;6.15;82.10;97488.98;1741559;81;21558;-57
2022/04/22 00:48:16;;;;;;;50.63;31.12;;;;;;;6.14;83.29;97491.38;1758247;81;21476;-57
2022/04/22 00:50:42;;;;;;;55.63;30.50;;;;;;;6.14;82.20;97484.66;1748223;81;21558;-57
2022/04/22 00:53:08;;;;;;;57.38;31.90;;;;;;;6.11;83.33;97479.00;1752639;81;21610;-57
2022/04/22 00:55:37;;;;;;;53.38;29.92;;;;;;;6.07;85.75;97476.59;1763321;80;20987;-57
2022/04/22 00:58:03;;;;;;;56.30;33.53;;;;;;;6.07;84.15;97477.39;1741887;81;21000;-57
2022/04/22 01:00:29;;;;;;;52.27;31.70;;;;;;;6.06;85.45;97476.28;1752543;81;21015;-57
2022/04/22 01:02:55;;;;;;;48.42;29.52;;;;;;;6.07;82.99;97479.27;1752712;81;21518;-58
2022/04/22 01:10:53;;;;;;;49.25;29.50;;;;;;;5.99;85.67;97477.90;1752480;81;21016;-57
2022/04/22 01:13:20;;;;;;;55.58;31.33;;;;;;;5.99;86.52;97476.55;1752427;81;21064;-58
2022/04/22 01:15:46;;;;;;;53.85;33.05;;;;;;;5.99;86.56;97475.75;1762062;81;21180;-58
2022/04/22 01:18:14;;;;;;;56.02;31.55;;;;;;;6.04;85.81;97474.41;1738117;81;20992;-57
2022/04/22 01:20:40;;;;;;;46.90;30.27;;;;;;;6.05;85.84;97472.78;1710199;82;20988;-57
2022/04/22 01:23:06;;;;;;;52.93;30.68;;;;;;;6.02;87.90;97469.83;1742146;81;20822;-57
2022/04/22 01:25:32;;;;;;;48.42;28.60;;;;;;;6.06;84.72;97468.22;1744434;81;21553;-57
2022/04/22 01:28:00;;;;;;;52.27;29.87;;;;;;;6.02;84.45;97467.95;1765916;81;21555;-57
2022/04/22 01:30:26;;;;;;;55.70;29.55;;;;;;;5.99;86.01;97463.64;1752642;81;20974;-58
2022/04/22 01:32:55;;;;;;;48.48;29.00;;;;;;;6.00;85.26;97455.84;1752614;81;21039;-57
2022/04/22 01:35:21;;;;;;;50.05;28.62;;;;;;;5.98;84.42;97457.42;1761737;81;21048;-57
2022/04/22 01:37:47;;;;;;;53.63;28.05;;;;;;;5.92;84.88;97459.31;1756212;81;21020;-57
2022/04/22 01:40:13;;;;;;;48.83;28.38;;;;;;;5.91;86.09;97457.69;1752439;81;21578;-58
2022/04/22 01:42:40;;;;;;;44.13;27.90;;;;;;;5.90;86.06;97457.42;1754226;81;20936;-57
2022/04/22 01:45:08;;;;;;;46.48;27.55;;;;;;;5.92;83.88;97455.27;1754785;79;21000;-57
2022/04/22 01:47:34;;;;;;;47.05;28.27;;;;;;;5.90;83.39;97461.97;1737440;81;21437;-57
2022/04/22 01:50:00;;;;;;;49.23;29.60;;;;;;;5.90;83.33;97466.00;1743776;81;20996;-58
2022/04/22 01:52:26;;;;;;;57.30;30.85;;;;;;;5.91;84.10;97456.35;1752218;81;22242;-57
2022/04/22 01:54:53;;;;;;;52.55;27.95;;;;;;;5.93;84.96;97454.20;1752238;81;20869;-57
2022/04/22 01:57:20;;;;;;;52.08;31.30;;;;;;;5.96;85.33;97456.08;1752597;81;21000;-58
2022/04/22 01:59:48;;;;;;;46.75;29.60;;;;;;;5.94;86.44;97454.47;1752164;81;21012;-57
2022/04/22 02:02:16;;;;;;;46.83;27.25;;;;;;;5.98;84.60;97453.93;1752254;81;21032;-57
2022/04/22 02:04:43;;;;;;;46.40;27.22;;;;;;;5.95;83.65;97444.52;1769027;79;21595;-58
2022/04/22 02:07:09;;;;;;;47.62;28.77;;;;;;;5.89;86.04;97436.92;1757883;81;21492;-58
2022/04/22 02:09:34;;;;;;;45.15;27.25;;;;;;;5.85;87.20;97429.12;1760263;79;21016;-58
2022/04/22 02:12:00;;;;;;;49.77;28.73;;;;;;;5.85;86.40;97425.63;1737647;81;21506;-57
2022/04/22 02:14:26;;;;;;;44.20;27.02;;;;;;;5.85;85.77;97427.78;1758810;79;20895;-58
2022/04/22 02:16:53;;;;;;;44.35;26.85;;;;;;;5.85;84.27;97426.44;1737612;81;21043;-57
2022/04/22 02:19:19;;;;;;;50.75;28.45;;;;;;;5.80;86.23;97424.25;1747494;81;21031;-57
2022/04/22 02:21:45;;;;;;;43.83;27.55;;;;;;;5.79;86.02;97421.30;1754619;81;21574;-57
2022/04/22 02:24:11;;;;;;;44.20;25.90;;;;;;;5.78;85.77;97421.84;1767349;79;21050;-57
2022/04/22 02:29:22;;;;;;;48.68;31.27;;;;;;;5.72;83.68;97425.56;1749544;81;21507;-57
2022/04/22 02:31:52;;;;;;;47.67;28.12;;;;;;;5.66;83.99;97420.72;1752413;81;20996;-58
2022/04/22 02:34:22;;;;;;;48.30;27.22;;;;;;;5.62;85.80;97420.96;1752615;81;21359;-57
2022/04/22 02:36:49;;;;;;;41.25;28.83;;;;;;;5.60;86.93;97416.39;1752315;81;21762;-57
2022/04/22 02:39:15;;;;;;;42.10;26.02;;;;;;;5.57;87.98;97416.11;1752321;81;21076;-57
2022/04/22 02:47:11;;;;;;;45.95;26.52;;;;;;;5.55;85.21;97418.23;1752271;81;21461;-57
2022/04/22 02:49:37;;;;;;;45.60;26.48;;;;;;;5.44;85.08;97417.92;1768636;79;20975;-57
2022/04/22 02:52:03;;;;;;;50.28;25.50;;;;;;;5.40;85.21;97416.84;1749243;81;20971;-57
2022/04/22 02:54:30;;;;;;;42.17;27.02;;;;;;;5.38;85.55;97423.79;1721427;82;22034;-57
2022/04/22 02:56:59;;;;;;;54.03;29.82;;;;;;;5.33;85.42;97416.52;1748369;81;20985;-57
2022/04/22 02:59:25;;;;;;;45.92;25.72;;;;;;;5.34;85.10;97411.96;1752425;81;21064;-57
2022/04/22 03:01:51;;;;;;;49.73;29.07;;;;;;;5.32;87.44;97409.54;1745113;81;20994;-57
2022/04/22 03:04:18;;;;;;;54.30;32.25;;;;;;;5.31;88.35;97408.46;1737330;81;21035;-57
2022/04/22 03:06:44;;;;;;;49.95;27.67;;;;;;;5.30;88.62;97411.69;1742445;82;21539;-57
2022/04/22 03:09:10;;;;;;;47.73;27.07;;;;;;;5.28;87.30;97420.52;1746983;82;20952;-57
2022/04/22 03:11:36;;;;;;;48.05;27.00;;;;;;;5.24;86.01;97418.63;1746847;82;20869;-57
2022/04/22 03:14:05;;;;;;;45.73;27.25;;;;;;;5.18;85.76;97414.28;1758874;80;20857;-57
2022/04/22 03:16:31;;;;;;;46.60;27.58;;;;;;;5.13;85.66;97417.76;1746738;82;21060;-58
2022/04/22 03:18:57;;;;;;;49.55;27.90;;;;;;;5.06;85.60;97413.95;1738389;81;22229;-57
2022/04/22 03:21:23;;;;;;;39.98;25.43;;;;;;;5.04;86.11;97398.64;1734483;82;20943;-57
2022/04/22 03:23:49;;;;;;;43.10;25.50;;;;;;;5.05;85.79;97402.94;1734737;82;21023;-57
2022/04/22 03:26:15;;;;;;;48.25;29.72;;;;;;;5.06;85.74;97409.92;1738516;81;21036;-57
2022/04/22 03:28:41;;;;;;;55.12;34.33;;;;;;;5.09;85.69;97411.27;1756706;80;20997;-58
2022/04/22 03:31:08;;;;;;;61.58;33.28;;;;;;;5.13;86.00;97408.86;1748932;81;21083;-57
2022/04/22 03:33:34;;;;;;;55.48;31.10;;;;;;;5.08;86.02;97407.78;1746862;82;21052;-57
2022/04/22 03:35:59;;;;;;;54.10;30.00;;;;;;;5.04;86.35;97405.35;1747130;81;20999;-58
2022/04/22 03:38:27;;;;;;;56.55;34.25;;;;;;;5.00;86.40;97399.40;1741068;81;20873;-57
2022/04/22 03:40:53;;;;;;;63.68;32.48;;;;;;;4.96;86.36;97399.66;1736275;82;21008;-57
2022/04/22 03:43:20;;;;;;;58.85;31.97;;;;;;;4.94;86.87;97399.08;1753685;79;20996;-58
2022/04/22 03:45:46;;;;;;;49.95;28.87;;;;;;;4.92;87.08;97395.86;1743831;81;21047;-57
2022/04/22 03:48:13;;;;;;;49.70;30.17;;;;;;;4.87;86.57;97390.44;1746956;82;20940;-57
2022/04/22 03:50:39;;;;;;;45.83;29.12;;;;;;;4.81;87.65;97397.66;1748096;81;21000;-58
2022/04/22 03:53:05;;;;;;;50.98;27.48;;;;;;;4.80;87.55;97388.00;1755666;81;20968;-57
2022/04/22 03:55:31;;;;;;;52.08;28.90;;;;;;;4.69;86.99;97396.48;1742483;82;21401;-57
2022/04/22 03:58:13;;;;;;;44.23;27.58;;;;;;;4.69;86.99;97396.48;1746721;82;21444;-57
2022/04/22 04:00:43;;;;;;;57.45;31.90;;;;;;;4.66;86.14;97394.86;1746808;82;21012;-57
2022/04/22 04:03:10;;;;;;;52.95;31.77;;;;;;;4.65;86.01;97403.98;1746741;82;21032;-57
2022/04/22 04:05:37;;;;;;;54.50;30.85;;;;;;;4.66;87.08;97404.25;1738899;82;21020;-58
2022/04/22 04:08:05;;;;;;;58.13;31.57;;;;;;;4.65;87.96;97402.64;1746886;82;21835;-57
2022/04/22 04:16:00;;;;;;;63.23;35.70;;;;;;;4.52;87.40;97421.30;1734366;82;21436;-57
2022/04/22 04:18:35;;;;;;;53.23;30.55;;;;;;;4.49;88.39;97431.21;1734254;82;20959;-57
2022/04/22 04:23:46;;;;;;;50.20;29.18;;;;;;;4.45;89.08;97430.92;1746621;82;21415;-58
2022/04/22 04:26:13;;;;;;;56.53;29.98;;;;;;;4.48;89.85;97428.25;1739414;82;20916;-57
2022/04/22 04:28:39;;;;;;;49.50;28.38;;;;;;;4.47;90.14;97426.64;1756171;79;21000;-57
2022/04/22 04:31:06;;;;;;;56.02;28.90;;;;;;;4.52;89.08;97432.03;1738848;81;21038;-58
2022/04/22 04:33:32;;;;;;;54.98;33.00;;;;;;;4.59;88.68;97433.98;1734186;81;21430;-57
2022/04/22 04:35:58;;;;;;;56.28;34.63;;;;;;;4.67;89.40;97438.88;1732514;81;21922;-58
2022/04/22 04:38:27;;;;;;;66.55;37.15;;;;;;;4.77;89.62;97425.53;1708325;81;21054;-58
2022/04/22 04:40:54;;;;;;;87.97;49.50;;;;;;;4.89;88.86;97427.25;1737449;82;21276;-58
2022/04/22 04:43:20;;;;;;;62.65;38.83;;;;;;;5.00;88.63;97423.03;1736186;81;21837;-58
2022/04/22 04:45:46;;;;;;;51.00;30.92;;;;;;;5.09;90.01;97422.02;1743162;81;21121;-57
2022/04/22 04:48:12;;;;;;;54.80;38.48;;;;;;;5.16;89.65;97420.45;1756449;81;21083;-58
2022/04/22 04:50:40;;;;;;;49.50;30.50;;;;;;;5.25;89.21;97429.64;1738433;82;21082;-58
2022/04/22 04:53:06;;;;;;;49.83;30.82;;;;;;;5.38;88.59;97423.79;1731828;81;21087;-58
2022/04/22 04:55:32;;;;;;;51.05;31.97;;;;;;;5.44;89.02;97421.95;1728625;82;21501;-58
2022/04/22 04:57:58;;;;;;;51.73;29.95;;;;;;;5.50;88.48;97419.57;1743861;80;21480;-58
2022/04/22 05:00:24;;;;;;;49.30;29.12;;;;;;;5.56;88.58;97414.50;1726590;81;20996;-58
2022/04/22 05:02:50;;;;;;;45.60;30.12;;;;;;;5.64;88.10;97418.03;1740481;81;20850;-58
2022/04/22 05:05:16;;;;;;;46.80;27.05;;;;;;;5.69;87.72;97416.70;1748083;81;21004;-58
2022/04/22 05:07:59;;;;;;;45.92;27.02;;;;;;;5.73;87.29;97413.77;1745854;81;21052;-58
2022/04/22 05:10:29;;;;;;;42.23;27.62;;;;;;;5.74;87.72;97410.55;1750360;80;21180;-56
2022/04/22 05:12:56;;;;;;;48.50;27.25;;;;;;;5.80;88.18;97417.00;1715344;81;21051;-58
2022/04/22 05:15:23;;;;;;;53.92;30.08;;;;;;;5.81;88.46;97418.64;1748750;81;21383;-58
2022/04/22 05:17:49;;;;;;;41.58;26.60;;;;;;;5.84;88.47;97417.30;1749127;81;21301;-58
2022/04/22 05:20:16;;;;;;;47.23;29.50;;;;;;;5.89;87.32;97419.45;1762657;79;20924;-57
2022/04/22 05:22:43;;;;;;;49.73;28.67;;;;;;;5.89;87.39;97416.76;1738642;81;21143;-58
2022/04/22 05:25:11;;;;;;;48.75;31.17;;;;;;;5.90;88.07;97413.56;1737807;81;21079;-58
2022/04/22 05:27:37;;;;;;;81.85;49.95;;;;;;;5.94;87.10;97414.12;1747188;81;21085;-58
2022/04/22 05:32:49;;;;;;;55.95;34.10;;;;;;;5.96;86.95;97414.40;1751264;81;20977;-57
2022/04/22 05:35:17;;;;;;;57.27;30.85;;;;;;;6.03;86.99;97414.42;1744383;80;21105;-58
2022/04/22 05:37:49;;;;;;;49.25;28.77;;;;;;;6.13;86.88;97408.26;1746068;81;20985;-57
2022/04/22 05:40:17;;;;;;;61.70;34.18;;;;;;;6.18;86.97;97402.36;1713786;80;21016;-57
2022/04/22 05:42:44;;;;;;;54.60;32.03;;;;;;;6.28;86.66;97405.61;1735979;81;21158;-58
2022/04/22 05:45:11;;;;;;;48.65;31.12;;;;;;;6.36;86.25;97397.55;1745113;80;21075;-57
2022/04/22 05:47:37;;;;;;;51.55;31.90;;;;;;;6.47;86.24;97393.23;1748247;80;21139;-58
2022/04/22 05:50:04;;;;;;;52.73;31.30;;;;;;;6.67;86.29;97385.73;1745350;81;20936;-58
2022/04/22 05:52:33;;;;;;;54.48;33.38;;;;;;;6.88;85.93;97380.31;1745915;81;21489;-58
2022/04/22 05:55:02;;;;;;;57.70;31.12;;;;;;;7.17;84.68;97384.03;1742885;79;21051;-57
2022/04/22 05:57:31;;;;;;;50.43;31.23;;;;;;;7.17;84.68;97384.03;1753028;80;21060;-57
2022/04/22 05:59:58;;;;;;;55.33;32.17;;;;;;;7.30;83.90;97384.81;1751014;81;21746;-58
2022/04/22 06:02:25;;;;;;;49.58;31.15;;;;;;;7.40;83.24;97388.56;1753310;81;20996;-57
2022/04/22 06:04:52;;;;;;;48.90;29.07;;;;;;;7.60;83.39;97393.87;1735978;81;21052;-58
2022/04/22 06:07:18;;;;;;;55.67;30.70;;;;;;;7.82;83.47;97390.83;1744832;81;21832;-58
2022/04/22 06:12:28;;;;;;;46.20;30.97;;;;;;;7.88;82.62;97399.17;1750578;81;21443;-57
2022/04/22 06:14:54;;;;;;;49.00;31.17;;;;;;;8.01;82.07;97396.40;1742963;81;20886;-58
2022/04/22 06:17:20;;;;;;;48.35;30.30;;;;;;;8.16;82.05;97391.73;1731845;81;21060;-57
2022/04/22 06:19:46;;;;;;;51.08;29.20;;;;;;;8.37;81.87;97395.13;1741948;79;20870;-58
2022/04/22 06:22:12;;;;;;;46.18;27.80;;;;;;;8.54;81.23;97395.28;1751618;80;20960;-58
2022/04/22 06:24:38;;;;;;;42.10;28.42;;;;;;;8.67;80.13;97392.76;1740396;81;21078;-58
2022/04/22 06:27:04;;;;;;;49.40;31.52;;;;;;;8.71;79.70;97401.09;1736923;81;20869;-57
2022/04/22 06:29:30;;;;;;;45.83;26.93;;;;;;;8.81;80.14;97381.32;1732359;80;21016;-57
2022/04/22 06:31:57;;;;;;;54.30;32.15;;;;;;;8.99;79.65;97381.41;1730282;81;21075;-58
2022/04/22 06:34:23;;;;;;;50.38;30.88;;;;;;;9.10;76.75;97377.26;1733823;81;21181;-58
2022/04/22 06:36:50;;;;;;;49.03;30.00;;;;;;;9.28;76.32;97380.03;1766209;80;22131;-58
2022/04/22 06:39:16;;;;;;;42.15;26.33;;;;;;;9.93;77.26;97374.69;1764760;80;21517;-58
2022/04/22 06:46:54;;;;;;;37.28;25.30;;;;;;;10.02;72.76;97369.69;1758232;80;20967;-58
2022/04/22 06:49:20;;;;;;;40.17;25.37;;;;;;;10.12;72.58;97370.09;1756007;80;21106;-58
2022/04/22 06:51:46;;;;;;;38.45;26.05;;;;;;;10.46;74.02;97367.19;1755662;80;21405;-58
2022/04/22 06:54:13;;;;;;;33.23;24.10;;;;;;;10.72;74.46;97375.72;1754566;80;21074;-58
2022/04/22 06:56:40;;;;;;;34.98;23.45;;;;;;;10.92;72.35;97369.95;1753567;80;21033;-58
2022/04/22 06:59:06;;;;;;;32.90;21.73;;;;;;;11.17;71.82;97364.63;1759077;80;21461;-58
2022/04/22 07:01:33;;;;;;;38.80;24.47;;;;;;;11.46;70.97;97369.80;1731856;81;21792;-58
2022/04/22 07:04:00;;;;;;;35.43;23.60;;;;;;;11.47;71.45;97371.41;1731487;81;20988;-58
2022/04/22 07:06:26;;;;;;;36.63;24.20;;;;;;;11.63;70.49;97371.11;1735844;81;21128;-58
2022/04/22 07:08:52;;;;;;;39.60;24.32;;;;;;;11.94;68.58;97370.75;1731201;81;21080;-57
2022/04/22 07:11:28;;;;;;;72.82;28.07;;;;;;;12.15;69.60;97371.13;1717083;81;20881;-58
2022/04/22 07:13:57;;;;;;;32.55;24.10;;;;;;;12.38;68.93;97365.16;1739926;82;21118;-58
2022/04/22 07:16:23;;;;;;;33.63;23.98;;;;;;;12.66;66.73;97370.77;1740684;81;20997;-58
2022/04/22 07:18:49;;;;;;;33.00;23.35;;;;;;;12.98;65.57;97364.23;1738194;81;21025;-57
2022/04/22 07:21:15;;;;;;;31.42;23.75;;;;;;;12.92;63.67;97366.06;1738050;81;21840;-59
2022/04/22 07:23:42;;;;;;;32.15;22.58;;;;;;;13.05;64.41;97358.36;1738205;81;21415;-58
2022/04/22 07:26:09;;;;;;;29.10;21.75;;;;;;;13.41;64.17;97351.44;1737707;81;22358;-58
2022/04/22 07:28:37;;;;;;;30.80;22.07;;;;;;;13.69;63.25;97347.97;1735327;81;21341;-58
2022/04/22 07:31:04;;;;;;;28.98;20.95;;;;;;;14.00;63.38;97349.78;1728477;81;21016;-58
2022/04/22 07:33:31;;;;;;;28.73;22.02;;;;;;;14.24;64.17;97352.87;1715623;81;21075;-58
2022/04/22 07:35:57;;;;;;;28.60;22.50;;;;;;;14.10;58.40;97355.75;1724714;82;21015;-59
2022/04/22 07:38:24;;;;;;;29.37;20.45;;;;;;;14.25;61.81;97353.66;1724199;81;22138;-58
2022/04/22 07:40:51;;;;;;;30.85;21.80;;;;;;;14.73;61.46;97354.11;1726600;81;21021;-57
2022/04/22 07:48:48;;;;;;;37.95;22.32;;;;;;;14.30;55.38;97341.26;1747946;80;21027;-58
2022/04/22 07:51:15;;;;;;;27.48;20.97;;;;;;;14.43;57.61;97340.84;1733361;81;22374;-58
2022/04/22 07:53:41;;;;;;;34.20;23.75;;;;;;;14.48;55.94;97338.80;1758518;81;21507;-58
2022/04/22 07:56:08;;;;;;;27.00;20.62;;;;;;;14.77;57.30;97332.67;1745634;81;33333;-59
2022/04/22 07:58:34;;;;;;;29.70;21.95;;;;;;;15.32;57.12;97327.81;1751611;79;20834;-58
2022/04/22 08:01:00;;;;;;;29.65;21.77;;;;;;;15.61;53.79;97324.33;1750378;80;20953;-58
2022/04/22 08:03:26;;;;;;;27.90;20.20;;;;;;;15.98;55.56;97325.42;1755660;80;21640;-59
2022/04/22 08:05:52;;;;;;;24.15;20.12;;;;;;;16.35;56.52;97320.17;1746294;81;21067;-58
2022/04/22 08:08:18;;;;;;;29.60;20.52;;;;;;;15.84;52.00;97323.49;1745452;81;20959;-58
2022/04/22 08:10:45;;;;;;;30.40;21.35;;;;;;;16.41;54.02;97318.84;1735900;80;20865;-58
2022/04/22 08:13:10;;;;;;;29.12;21.52;;;;;;;16.39;50.53;97312.88;1739919;81;20988;-58
2022/04/22 08:15:36;;;;;;;33.53;20.10;;;;;;;16.41;53.59;97321.58;1742929;80;21510;-58
2022/04/22 08:18:03;;;;;;;22.37;18.55;;;;;;;16.11;50.31;97320.83;1752091;80;21208;-59
2022/04/22 08:20:32;;;;;;;25.62;19.65;;;;;;;16.16;50.31;97317.11;1763932;80;21606;-58
2022/04/22 08:23:00;;;;;;;24.67;19.30;;;;;;;16.04;52.43;97313.72;1763789;80;21361;-58
2022/04/22 08:25:26;;;;;;;31.67;25.43;;;;;;;16.28;53.33;97306.23;1759369;80;21020;-58
2022/04/22 08:27:52;;;;;;;34.85;28.45;;;;;;;16.33;53.34;97298.64;1762946;80;21458;-57
2022/04/22 08:30:18;;;;;;;27.10;21.65;;;;;;;16.01;52.56;97296.63;1756004;80;20932;-58
2022/04/22 08:32:44;;;;;;;26.93;20.75;;;;;;;15.76;51.71;97297.83;1754759;80;21212;-58
2022/04/22 08:35:10;;;;;;;28.10;21.35;;;;;;;16.69;52.52;97295.85;1754161;80;20987;-59
2022/04/22 08:37:42;;;;;;;23.25;19.23;;;;;;;17.15;51.45;97285.13;1733784;81;20944;-59
2022/04/22 08:40:08;;;;;;;21.85;17.50;;;;;;;17.24;49.84;97285.59;1744113;79;21083;-58
2022/04/22 08:42:35;;;;;;;22.67;17.52;;;;;;;17.85;50.23;97282.30;1737854;81;21097;-58
2022/04/22 08:45:01;;;;;;;20.35;16.27;;;;;;;18.01;49.41;97276.34;1739868;81;21051;-58
2022/04/22 08:50:16;;;;;;;23.30;16.87;;;;;;;17.69;49.38;97274.55;1726084;82;21124;-58
2022/04/22 08:52:45;;;;;;;25.10;19.52;;;;;;;17.46;49.03;97273.64;1743362;81;21469;-59
2022/04/22 08:55:12;;;;;;;80.77;51.53;;;;;;;16.65;46.67;97273.80;1745870;81;21029;-58
2022/04/22 08:57:38;;;;;;;28.55;19.57;;;;;;;16.31;46.38;97274.11;1746799;81;21551;-58
2022/04/22 09:00:09;;;;;;;31.75;23.40;;;;;;;15.61;47.75;97271.65;1727137;81;20878;-58
2022/04/22 09:02:35;;;;;;;33.08;22.30;;;;;;;15.66;47.72;97268.17;1739550;81;21009;-59
2022/04/22 09:05:01;;;;;;;19.10;15.40;;;;;;;16.11;48.10;97264.00;1743580;80;21446;-59
2022/04/22 09:07:27;;;;;;;25.72;17.02;;;;;;;16.45;46.74;97269.17;1733733;81;20878;-58
2022/04/22 09:09:54;;;;;;;19.62;16.10;;;;;;;17.24;44.25;97265.06;1743883;81;21023;-58
2022/04/22 09:12:24;;;;;;;18.02;13.55;;;;;;;18.40;44.42;97266.30;1736289;81;20870;-59
2022/04/22 09:14:52;;;;;;;18.25;14.20;;;;;;;18.87;40.60;97274.67;1733727;81;21087;-59
2022/04/22 09:17:29;;;;;;;16.20;12.80;;;;;;;18.83;39.85;97259.50;1740086;81;21826;-59
2022/04/22 09:19:57;;;;;;;14.98;13.28;;;;;;;18.24;39.55;97263.50;1742414;80;21452;-58
2022/04/22 09:22:24;;;;;;;15.95;12.05;;;;;;;18.54;41.27;97255.17;1733329;81;20962;-58
2022/04/22 09:24:56;;;;;;;15.50;11.43;;;;;;;17.54;40.89;97252.75;1741517;79;21044;-59
2022/04/22 09:27:38;;;;;;;16.52;12.30;;;;;;;17.72;42.41;97253.34;1723825;82;20997;-59
2022/04/22 09:30:09;;;;;;;18.07;12.63;;;;;;;17.33;42.41;97259.70;1733055;81;21114;-58
2022/04/22 09:32:43;;;;;;;16.80;12.40;;;;;;;17.96;43.32;97257.41;1727828;82;21036;-58
2022/04/22 09:35:15;;;;;;;14.58;11.03;;;;;;;18.00;41.99;97263.78;1735670;81;21444;-59
2022/04/22 09:43:33;;;;;;;17.75;11.95;;;;;;;17.37;44.29;97266.11;1739327;80;21847;-59
2022/04/22 09:45:59;;;;;;;22.32;12.82;;;;;;;17.04;44.84;97265.39;1750967;81;21004;-58
2022/04/22 09:48:25;;;;;;;15.45;10.72;;;;;;;17.16;45.17;97273.60;1729099;81;20968;-58
2022/04/22 09:50:53;;;;;;;19.12;13.48;;;;;;;16.57;45.04;97280.72;1739324;81;20853;-58
2022/04/22 09:53:33;;;;;;;17.67;13.00;;;;;;;16.71;45.36;97270.89;1746048;80;21099;-58
2022/04/22 09:56:06;;;;;;;15.08;11.25;;;;;;;16.64;46.00;97272.77;1739677;81;21490;-58
2022/04/22 09:58:31;;;;;;;15.35;10.78;;;;;;;15.85;45.32;97275.92;1729607;81;21044;-58
2022/04/22 10:01:00;;;;;;;14.33;11.10;;;;;;;16.11;46.30;97274.37;1740621;81;20972;-58
2022/04/22 10:03:37;;;;;;;17.02;11.90;;;;;;;15.86;46.37;97273.98;1739656;80;20985;-57
2022/04/22 10:06:05;;;;;;;14.65;10.40;;;;;;;15.95;46.64;97271.99;1740890;81;21016;-58
2022/04/22 10:08:37;;;;;;;14.55;11.10;;;;;;;15.75;46.65;97273.02;1758692;80;21608;-58
2022/04/22 10:11:06;;;;;;;13.08;10.63;;;;;;;15.50;46.95;97279.39;1736349;81;21501;-57
2022/04/22 10:13:46;;;;;;;15.28;11.85;;;;;;;15.32;48.56;97280.05;1731390;80;20985;-58
2022/04/22 10:16:13;;;;;;;15.50;12.07;;;;;;;14.90;48.73;97281.23;1747771;81;20981;-58
2022/04/22 10:18:40;;;;;;;16.20;11.45;;;;;;;15.12;48.32;97275.30;1720522;82;21618;-58
2022/04/22 10:21:06;;;;;;;16.25;12.30;;;;;;;15.10;48.63;97271.53;1729236;81;21516;-58
2022/04/22 10:23:32;;;;;;;12.73;10.90;;;;;;;14.96;49.14;97265.50;1749774;80;21540;-57
2022/04/22 10:25:59;;;;;;;16.97;11.43;;;;;;;15.52;48.41;97262.91;1733173;81;20987;-58
2022/04/22 10:28:25;;;;;;;14.30;9.88;;;;;;;14.98;49.13;97258.36;1740194;80;21091;-58
2022/04/22 10:30:54;;;;;;;13.60;10.60;;;;;;;15.67;47.93;97262.94;1739889;81;20977;-58
2022/04/22 10:33:27;;;;;;;;;;;;;;;15.57;48.92;97263.86;1736247;81;21670;-58
2022/04/22 10:36:01;;;;;;;16.80;11.97;;;;;;;15.67;48.99;97262.14;1729533;81;20954;-58
2022/04/22 10:38:38;;;;;;;22.20;12.28;;;;;;;15.77;48.18;97257.09;1735719;81;21071;-58
2022/04/22 10:41:13;;;;;;;14.85;11.10;;;;;;;15.51;49.48;97255.05;1733165;81;21004;-58
2022/04/22 10:43:39;;;;;;;25.02;12.55;;;;;;;15.22;50.14;97260.75;1738279;80;21038;-57
2022/04/22 10:49:13;;;;;;;16.95;12.63;;;;;;;15.66;49.72;97250.98;1760515;80;21095;-58
2022/04/22 10:52:14;;;;;;;19.15;12.60;;;;;;;15.45;49.77;97254.43;1734304;81;21103;-58
2022/04/22 10:54:55;;;;;;;16.00;11.60;;;;;;;15.11;49.92;97249.94;1741995;82;21008;-58
2022/04/22 10:57:33;;;;;;;22.25;12.50;;;;;;;15.57;49.97;97244.75;1718560;82;21158;-58
2022/04/22 11:00:11;;;;;;;23.70;13.55;;;;;;;15.68;49.69;97232.33;1731782;81;21283;-58
2022/04/22 11:02:40;;;;;;;17.57;12.68;;;;;;;15.34;51.28;97236.04;1739907;81;21485;-58
2022/04/22 11:05:26;;;;;;;17.27;12.40;;;;;;;15.02;51.48;97239.63;1752741;80;21467;-58
2022/04/22 11:07:56;;;;;;;16.73;11.90;;;;;;;15.11;51.51;97240.95;1741023;80;20985;-58
2022/04/22 11:10:42;;;;;;;20.88;15.15;;;;;;;15.11;52.14;97242.31;1730744;80;20996;-58
2022/04/22 11:13:08;;;;;;;17.55;12.78;;;;;;;15.13;52.99;97234.63;1736654;80;21832;-58
2022/04/22 11:15:47;;;;;;;18.55;14.15;;;;;;;14.87;53.58;97233.37;1707018;82;20865;-58
2022/04/22 11:18:14;;;;;;;21.65;13.70;;;;;;;15.30;51.75;97231.02;1731856;80;20987;-58
2022/04/22 11:20:48;;;;;;;20.68;15.08;;;;;;;15.18;52.94;97235.79;1734347;81;21160;-58
2022/04/22 11:23:14;;;;;;;26.05;17.65;;;;;;;15.06;54.37;97246.05;1736056;80;21052;-58
2022/04/22 11:25:41;;;;;;;23.85;18.05;;;;;;;15.06;55.64;97242.52;1742981;81;21635;-58
2022/04/22 11:28:08;;;;;;;24.60;17.70;;;;;;;14.89;56.21;97239.29;1742406;82;21021;-58
2022/04/22 11:30:34;;;;;;;27.40;18.30;;;;;;;14.94;57.01;97236.37;1733752;81;21166;-57
2022/04/22 11:33:22;;;;;;;25.68;19.60;;;;;;;14.53;57.27;97241.87;1730432;80;20932;-57
2022/04/22 11:35:50;;;;;;;23.18;17.40;;;;;;;14.51;57.11;97235.92;1732703;81;21606;-57
2022/04/22 11:38:16;;;;;;;22.07;16.10;;;;;;;14.28;58.47;97240.76;1732643;81;21153;-58
2022/04/22 11:40:44;;;;;;;30.37;18.75;;;;;;;14.15;58.59;97234.11;1736036;82;21678;-57
2022/04/22 11:43:18;;;;;;;28.87;18.90;;;;;;;14.52;57.53;97231.27;1738679;80;21055;-58
2022/04/22 11:45:46;;;;;;;27.82;18.87;;;;;;;14.32;58.20;97238.98;1739559;81;21639;-58
2022/04/22 11:48:14;;;;;;;26.23;17.35;;;;;;;14.55;57.55;97236.09;1738751;81;20991;-58
2022/04/22 11:50:42;;;;;;;26.45;16.57;;;;;;;14.56;58.17;97233.05;1748573;81;21384;-58
2022/04/22 11:53:21;;;;;;;28.40;18.97;;;;;;;14.52;57.57;97236.73;1739284;81;21073;-58
2022/04/22 11:55:47;;;;;;;;;;;;;;;14.49;58.03;97230.00;1734134;81;21103;-58
2022/04/22 11:58:23;;;;;;;26.07;18.62;;;;;;;14.40;56.79;97228.63;1744303;81;20545;-57
2022/04/22 12:06:18;;;;;;;25.88;18.07;;;;;;;14.17;57.46;97225.05;1739571;81;21599;-58
2022/04/22 12:09:05;;;;;;;25.32;17.60;;;;;;;14.27;56.66;97227.44;1742673;80;21076;-58
2022/04/22 12:11:41;;;;;;;25.48;17.50;;;;;;;13.95;58.40;97222.75;1736962;81;21074;-57
2022/04/22 12:14:07;;;;;;;26.93;17.12;;;;;;;13.61;59.39;97219.44;1707842;82;21556;-58
2022/04/22 12:16:33;;;;;;;23.57;18.05;;;;;;;13.48;59.96;97228.53;1737255;81;21135;-57
2022/04/22 12:19:00;;;;;;;27.55;17.80;;;;;;;13.77;59.12;97225.22;1739237;80;20876;-58
2022/04/22 12:21:27;;;;;;;31.27;22.73;;;;;;;13.73;58.89;97227.77;1739853;80;21033;-57